Time;durP1;ratioP1;P1;durP2;ratioP2;P2;SDS_P1;SDS_P2;PMS_P1;PMS_P2;Temp;Humidity;BMP_temperature;BMP_pressure;BME280_temperature;BME280_humidity;BME280_pressure;Samples;Min_cycle;Max_cycle;Signal;HPM_P1;HPM_P2
2021/11/04 00:00:48;;;;;;;1.12;0.50;;;;;;;15.18;42.21;100239.69;4424876;32;20443;-70
2021/11/04 00:03:14;;;;;;;2.12;0.47;;;;;;;15.16;42.30;100243.00;4428699;32;20123;-70
2021/11/04 00:05:40;;;;;;;4.15;0.62;;;;;;;14.99;42.52;100236.19;4427709;32;20089;-70
2021/11/04 00:08:06;;;;;;;2.12;0.40;;;;;;;15.10;42.46;100244.16;4427901;32;20434;-70
2021/11/04 00:10:34;;;;;;;2.78;0.40;;;;;;;14.76;43.19;100241.81;4426399;32;20046;-70
2021/11/04 00:13:01;;;;;;;1.15;0.50;;;;;;;15.25;42.26;100247.84;4426375;32;20148;-70
2021/11/04 00:15:27;;;;;;;1.30;0.50;;;;;;;15.03;42.45;100236.00;4431207;32;20045;-70
2021/11/04 00:17:52;;;;;;;2.62;0.40;;;;;;;15.10;42.11;100253.41;4430047;32;20469;-70
2021/11/04 00:20:19;;;;;;;2.35;0.40;;;;;;;14.39;43.32;100238.31;4427355;32;20064;-70
2021/11/04 00:22:46;;;;;;;1.45;0.40;;;;;;;14.92;42.56;100242.22;4430594;32;20093;-70
2021/11/04 00:25:13;;;;;;;1.73;0.47;;;;;;;15.09;42.32;100251.84;4421376;32;20063;-70
2021/11/04 00:27:40;;;;;;;3.83;0.50;;;;;;;15.06;42.44;100252.81;4430459;32;20042;-70
2021/11/04 00:30:08;;;;;;;1.23;0.40;;;;;;;14.98;42.27;100254.47;4429230;32;20713;-70
2021/11/04 00:32:34;;;;;;;4.40;0.60;;;;;;;14.92;42.86;100245.03;4428676;32;20519;-70
2021/11/04 00:35:02;;;;;;;4.03;0.37;;;;;;;14.86;42.59;100243.34;4428259;32;20539;-70
2021/11/04 00:37:28;;;;;;;2.60;0.50;;;;;;;14.83;42.77;100247.91;4430523;32;20521;-70
2021/11/04 00:39:54;;;;;;;1.27;0.40;;;;;;;14.94;42.61;100253.06;4429480;32;20105;-70
2021/11/04 00:42:20;;;;;;;2.65;0.50;;;;;;;15.01;42.35;100258.38;4430508;32;20088;-70
2021/11/04 00:44:46;;;;;;;2.92;0.80;;;;;;;14.85;42.50;100253.87;4429321;32;20491;-70
2021/11/04 00:47:13;;;;;;;1.15;0.40;;;;;;;14.75;42.84;100255.19;4429455;32;20096;-70
2021/11/04 00:49:38;;;;;;;2.25;0.60;;;;;;;14.77;42.95;100257.53;4429407;32;20049;-70
2021/11/04 00:52:04;;;;;;;3.47;0.30;;;;;;;14.89;42.82;100254.50;4429454;32;21244;-70
2021/11/04 00:54:31;;;;;;;0.65;0.20;;;;;;;14.81;42.74;100258.94;4430902;32;20092;-70
2021/11/04 00:56:57;;;;;;;1.65;0.50;;;;;;;14.99;42.73;100252.38;4429526;32;20112;-70
2021/11/04 00:59:22;;;;;;;1.37;0.50;;;;;;;14.70;42.92;100255.81;4430722;32;20042;-70
2021/11/04 01:01:48;;;;;;;0.93;0.30;;;;;;;14.91;42.53;100266.12;4428370;32;20127;-70
2021/11/04 01:04:14;;;;;;;3.85;0.30;;;;;;;14.86;42.81;100257.50;4430300;32;20363;-70
2021/11/04 01:06:40;;;;;;;6.93;0.50;;;;;;;15.03;42.47;100261.53;4428082;32;20471;-70
2021/11/04 01:09:06;;;;;;;2.58;0.32;;;;;;;14.69;43.25;100268.41;4429308;32;20069;-70
2021/11/04 01:11:32;;;;;;;1.90;0.50;;;;;;;14.91;42.71;100268.19;4429580;32;20114;-70
2021/11/04 01:13:58;;;;;;;3.03;0.40;;;;;;;15.00;42.71;100270.97;4428438;32;20040;-70
2021/11/04 01:16:24;;;;;;;3.80;0.30;;;;;;;15.05;42.38;100265.44;4430227;32;20140;-70
2021/11/04 01:18:50;;;;;;;7.05;0.95;;;;;;;15.11;42.42;100269.19;4427864;32;20578;-70
2021/11/04 01:21:16;;;;;;;1.17;0.37;;;;;;;14.90;42.85;100260.94;4426648;32;20095;-70
2021/11/04 01:23:41;;;;;;;2.03;0.40;;;;;;;15.26;42.09;100272.06;4430928;32;20105;-70
2021/11/04 01:26:07;;;;;;;3.75;0.50;;;;;;;15.20;42.20;100263.47;4421135;32;20054;-70
2021/11/04 01:28:33;;;;;;;0.95;0.30;;;;;;;15.20;42.04;100265.50;4428799;32;20068;-70
2021/11/04 01:30:59;;;;;;;3.17;0.40;;;;;;;15.35;41.90;100272.81;4428621;32;20090;-70
2021/11/04 01:33:24;;;;;;;2.95;0.47;;;;;;;15.46;41.93;100272.28;4427461;32;20041;-70
2021/11/04 01:35:50;;;;;;;1.92;0.50;;;;;;;15.85;41.30;100276.72;4427770;32;20093;-70
2021/11/04 01:38:18;;;;;;;2.97;0.40;;;;;;;15.95;41.08;100278.97;4428834;32;20081;-70
2021/11/04 01:40:44;;;;;;;1.12;0.20;;;;;;;15.89;40.48;100269.56;4428615;32;20085;-70
2021/11/04 01:43:10;;;;;;;2.20;0.40;;;;;;;16.15;40.73;100275.50;4430951;32;20080;-70
2021/11/04 01:45:36;;;;;;;0.40;0.20;;;;;;;16.11;40.62;100272.06;4430546;32;20491;-70
2021/11/04 01:48:03;;;;;;;2.53;0.30;;;;;;;15.97;40.77;100269.97;4428879;32;20398;-70
2021/11/04 01:50:30;;;;;;;1.90;0.30;;;;;;;16.54;39.90;100268.47;4426670;32;20092;-70
2021/11/04 01:52:56;;;;;;;1.92;0.40;;;;;;;16.39;40.04;100270.53;4430980;32;20060;-70
2021/11/04 01:55:25;;;;;;;1.60;0.28;;;;;;;16.25;40.55;100274.13;4427194;32;20064;-70
2021/11/04 01:57:52;;;;;;;2.47;0.22;;;;;;;16.08;40.73;100264.53;4429043;32;20601;-70
2021/11/04 02:00:20;;;;;;;2.12;0.30;;;;;;;15.74;41.36;100260.25;4427226;32;20101;-70
2021/11/04 02:02:52;;;;;;;0.88;0.30;;;;;;;15.87;41.24;100266.44;4427726;32;20077;-70
2021/11/04 02:05:24;;;;;;;1.85;0.30;;;;;;;15.91;41.04;100271.94;4427554;32;20376;-70
2021/11/04 02:10:36;;;;;;;2.00;0.35;;;;;;;16.05;41.09;100279.69;3979710;32;15067917;-70
2021/11/04 02:15:42;;;;;;;1.17;0.32;;;;;;;16.13;nan;100289.38;3956581;32;15724541;-70
2021/11/04 02:18:09;;;;;;;2.03;0.40;;;;;;;16.13;nan;100289.38;4435101;32;20092;-70
2021/11/04 02:26:08;;;;;;;1.52;0.40;;;;;;;15.87;41.45;100283.47;4003096;31;15014736;-69
2021/11/04 02:28:38;;;;;;;1.52;0.30;;;;;;;15.87;41.45;100283.47;4466180;32;20311;-69
2021/11/04 02:31:08;;;;;;;1.80;0.40;;;;;;;15.67;41.57;100276.84;4462616;32;20073;-69
2021/11/04 02:33:36;;;;;;;1.60;0.25;;;;;;;15.65;41.65;100282.25;4464977;32;20025;-69
2021/11/04 02:36:03;;;;;;;4.22;1.02;;;;;;;15.40;41.97;100288.41;4465303;32;20387;-69
2021/11/04 02:38:31;;;;;;;4.75;0.52;;;;;;;15.32;41.82;100299.28;4463977;32;20113;-69
2021/11/04 02:41:00;;;;;;;3.47;0.40;;;;;;;15.92;41.11;100296.97;4462304;32;20037;-69
2021/11/04 02:43:28;;;;;;;0.80;0.28;;;;;;;16.10;40.57;100298.88;4464349;32;20108;-69
2021/11/04 02:45:54;;;;;;;2.10;0.25;;;;;;;16.15;40.55;100295.38;4464390;32;20049;-69
2021/11/04 02:48:20;;;;;;;2.60;0.35;;;;;;;15.93;40.74;100309.13;4466174;32;20101;-69
2021/11/04 02:50:47;;;;;;;1.48;0.30;;;;;;;16.15;40.41;100301.03;4464547;32;20084;-69
2021/11/04 02:53:15;;;;;;;1.90;0.20;;;;;;;16.14;40.42;100305.13;4463272;32;20434;-69
2021/11/04 02:55:42;;;;;;;3.40;0.20;;;;;;;16.01;40.60;100303.84;4462581;32;20134;-69
2021/11/04 02:58:10;;;;;;;2.90;0.20;;;;;;;16.31;40.07;100306.25;4464703;32;20077;-69
2021/11/04 03:00:40;;;;;;;1.75;0.20;;;;;;;16.26;40.01;100306.91;4460776;32;20024;-69
2021/11/04 03:03:06;;;;;;;5.22;0.32;;;;;;;16.10;40.38;100315.91;4464767;32;20342;-67
2021/11/04 03:05:31;;;;;;;0.95;0.28;;;;;;;16.22;40.03;100317.69;4465888;32;20496;-67
2021/11/04 03:07:58;;;;;;;1.70;0.55;;;;;;;16.64;39.57;100314.59;4460482;32;20032;-68
2021/11/04 03:10:23;;;;;;;4.87;0.50;;;;;;;16.33;39.73;100315.06;4461703;32;20366;-67
2021/11/04 03:12:50;;;;;;;4.22;0.30;;;;;;;16.37;39.66;100309.97;4459694;32;20055;-67
2021/11/04 03:15:18;;;;;;;1.27;0.30;;;;;;;16.24;40.06;100308.69;4461253;32;20493;-67
2021/11/04 03:17:47;;;;;;;0.77;0.25;;;;;;;16.35;40.19;100318.19;4463727;32;20037;-68
2021/11/04 03:20:15;;;;;;;2.00;0.50;;;;;;;16.50;40.20;100316.16;4464621;32;20079;-67
2021/11/04 03:22:42;;;;;;;5.50;0.30;;;;;;;16.55;40.26;100317.53;4461507;32;20065;-68
2021/11/04 03:25:08;;;;;;;2.12;0.40;;;;;;;15.65;41.24;100299.25;4462633;32;20057;-68
2021/11/04 03:27:37;;;;;;;1.58;0.25;;;;;;;15.84;40.74;100312.03;4466111;32;20025;-68
2021/11/04 03:30:04;;;;;;;1.02;0.37;;;;;;;15.77;41.09;100316.00;4462377;32;20111;-68
2021/11/04 03:32:32;;;;;;;2.37;0.30;;;;;;;15.77;40.78;100318.06;4463402;32;20037;-67
2021/11/04 03:34:58;;;;;;;3.28;0.40;;;;;;;15.91;40.97;100320.16;4460666;32;20164;-68
2021/11/04 03:37:28;;;;;;;1.75;0.20;;;;;;;15.66;41.16;100326.34;4449976;32;20355;-68
2021/11/04 03:39:55;;;;;;;0.73;0.10;;;;;;;16.19;40.42;100327.19;4446814;32;20076;-68
2021/11/04 03:42:22;;;;;;;2.40;0.20;;;;;;;16.02;40.44;100318.34;4451293;32;20087;-68
2021/11/04 03:44:48;;;;;;;1.12;0.25;;;;;;;15.74;40.79;100313.38;4456454;32;20118;-68
2021/11/04 03:47:17;;;;;;;2.70;0.25;;;;;;;15.80;40.88;100315.03;4435025;32;20390;-68
2021/11/04 03:49:47;;;;;;;3.33;0.30;;;;;;;15.56;nan;100313.50;4451890;32;20096;-67
2021/11/04 03:52:13;;;;;;;2.37;0.37;;;;;;;15.54;41.38;100322.50;4453481;32;20365;-68
2021/11/04 03:54:39;;;;;;;2.92;0.30;;;;;;;15.77;40.28;100333.03;4449315;32;20029;-67
2021/11/04 03:57:05;;;;;;;1.95;0.40;;;;;;;16.15;39.85;100322.97;4449128;32;21085;-67
2021/11/04 03:59:31;;;;;;;3.55;0.40;;;;;;;15.88;40.26;100327.59;4449617;32;21283;-68
2021/11/04 04:01:57;;;;;;;2.20;0.60;;;;;;;16.12;39.80;100335.28;4449197;32;20045;-68
2021/11/04 04:04:23;;;;;;;1.27;0.10;;;;;;;15.94;40.22;100331.34;4449548;32;20125;-67
2021/11/04 04:06:54;;;;;;;1.17;0.57;;;;;;;15.86;40.32;100324.47;4450951;32;20045;-67
2021/11/04 04:09:22;;;;;;;1.95;0.20;;;;;;;16.14;40.19;100339.19;4455476;32;20391;-67
2021/11/04 04:11:49;;;;;;;1.77;0.50;;;;;;;16.21;40.02;100333.16;4452128;32;20159;-67
2021/11/04 04:14:15;;;;;;;3.03;0.30;;;;;;;16.19;39.89;100335.69;4449653;32;20130;-67
2021/11/04 04:16:41;;;;;;;2.15;0.20;;;;;;;15.40;41.19;100339.44;4453980;32;20080;-67
2021/11/04 04:19:07;;;;;;;0.52;0.20;;;;;;;15.78;40.56;100342.34;4452352;32;20065;-67
2021/11/04 04:21:32;;;;;;;1.35;0.30;;;;;;;15.82;40.80;100351.44;4453261;32;20382;-67
2021/11/04 04:23:58;;;;;;;1.48;0.20;;;;;;;15.69;40.76;100342.41;4437987;32;20355;-67
2021/11/04 04:26:24;;;;;;;3.85;0.45;;;;;;;16.18;39.83;100348.34;4449891;32;20083;-67
2021/11/04 04:28:50;;;;;;;0.55;0.20;;;;;;;15.60;40.82;100348.13;4454673;32;20077;-67
2021/11/04 04:31:15;;;;;;;2.25;0.20;;;;;;;15.68;40.49;100367.13;4452751;32;20016;-67
2021/11/04 04:33:41;;;;;;;4.57;0.30;;;;;;;15.63;40.71;100355.69;4451335;32;20088;-67
2021/11/04 04:36:07;;;;;;;1.20;0.20;;;;;;;15.92;40.34;100362.25;4454092;32;20308;-67
2021/11/04 04:38:33;;;;;;;2.97;0.30;;;;;;;15.78;40.38;100365.81;4451940;32;20073;-67
2021/11/04 04:40:58;;;;;;;1.37;0.20;;;;;;;15.84;40.29;100363.09;4451681;32;20512;-67
2021/11/04 04:43:24;;;;;;;2.87;0.40;;;;;;;15.83;40.59;100375.72;4452711;32;20068;-68
2021/11/04 04:45:50;;;;;;;3.40;0.20;;;;;;;15.47;41.11;100367.44;4452689;32;20041;-68
2021/11/04 04:48:16;;;;;;;1.67;0.20;;;;;;;15.45;41.05;100375.63;4454751;32;20045;-68
2021/11/04 04:50:43;;;;;;;0.70;0.20;;;;;;;15.48;41.07;100369.00;4452667;32;20068;-68
2021/11/04 04:53:09;;;;;;;1.83;0.30;;;;;;;15.56;41.06;100367.41;4454732;32;20509;-68
2021/11/04 04:55:35;;;;;;;2.15;0.20;;;;;;;15.50;40.92;100372.91;4450665;32;20052;-68
2021/11/04 04:58:01;;;;;;;0.85;0.20;;;;;;;15.56;40.82;100375.91;4450252;32;20102;-67
2021/11/04 05:00:27;;;;;;;3.90;0.20;;;;;;;15.67;40.71;100376.94;4448772;32;20491;-67
2021/11/04 05:02:53;;;;;;;3.62;0.28;;;;;;;15.65;40.66;100390.78;4451916;32;20430;-67
2021/11/04 05:05:19;;;;;;;3.37;0.40;;;;;;;15.95;40.33;100389.66;4452405;32;20036;-67
2021/11/04 05:07:45;;;;;;;1.80;0.40;;;;;;;16.23;39.62;100386.63;4456002;32;20377;-67
2021/11/04 05:10:11;;;;;;;4.10;0.60;;;;;;;16.02;39.97;100392.13;4452396;32;20025;-67
2021/11/04 05:12:37;;;;;;;2.05;0.30;;;;;;;15.94;40.25;100398.66;4447824;32;20045;-67
2021/11/04 05:15:04;;;;;;;1.45;0.47;;;;;;;15.57;40.60;100400.16;4451495;32;20425;-67
2021/11/04 05:17:30;;;;;;;2.75;0.20;;;;;;;15.62;40.82;100394.59;4449647;32;20063;-68
2021/11/04 05:19:56;;;;;;;3.75;0.40;;;;;;;15.99;39.95;100400.84;4449561;32;20128;-68
2021/11/04 05:22:22;;;;;;;2.45;0.22;;;;;;;16.01;40.41;100408.88;4453768;32;20125;-68
2021/11/04 05:24:47;;;;;;;0.50;0.22;;;;;;;15.62;40.44;100400.28;4450659;32;20045;-68
2021/11/04 05:27:13;;;;;;;5.10;0.40;;;;;;;15.57;40.89;100406.63;4454111;32;20391;-67
2021/11/04 05:29:40;;;;;;;2.65;0.62;;;;;;;15.25;41.48;100413.03;4452676;32;20090;-67
2021/11/04 05:32:07;;;;;;;1.55;0.25;;;;;;;15.61;40.71;100414.94;4448529;32;20038;-67
2021/11/04 05:34:36;;;;;;;2.25;0.30;;;;;;;15.49;41.18;100411.06;4452724;32;20080;-67
2021/11/04 05:37:02;;;;;;;0.50;0.20;;;;;;;15.93;40.17;100416.97;4447755;32;20077;-67
2021/11/04 05:39:27;;;;;;;2.62;0.20;;;;;;;15.49;40.73;100428.06;4446506;32;20034;-67
2021/11/04 05:41:53;;;;;;;1.42;0.20;;;;;;;15.71;40.37;100436.34;4448625;32;20335;-67
2021/11/04 05:44:18;;;;;;;3.15;0.40;;;;;;;16.10;39.58;100435.12;4453164;32;20063;-67
2021/11/04 05:46:44;;;;;;;1.42;0.20;;;;;;;16.12;39.68;100435.44;4454149;32;20077;-67
2021/11/04 05:49:10;;;;;;;2.60;0.37;;;;;;;15.86;40.04;100432.28;4451723;32;20068;-67
2021/11/04 05:51:35;;;;;;;7.05;0.40;;;;;;;15.88;39.90;100441.13;4451198;32;20056;-67
2021/11/04 05:54:01;;;;;;;2.08;0.37;;;;;;;14.93;41.65;100441.31;4447888;32;20126;-67
2021/11/04 05:56:27;;;;;;;2.62;0.40;;;;;;;15.44;40.42;100445.72;4448742;32;20034;-67
2021/11/04 05:58:52;;;;;;;3.97;0.40;;;;;;;15.62;40.33;100444.88;4452546;32;20072;-67
2021/11/04 06:01:18;;;;;;;1.90;0.20;;;;;;;15.82;39.90;100448.72;4449645;32;20159;-67
2021/11/04 06:03:44;;;;;;;1.20;0.40;;;;;;;15.58;40.51;100453.56;4451397;32;20087;-67
2021/11/04 06:06:10;;;;;;;4.43;3.90;;;;;;;15.57;40.42;100456.88;4447488;32;20041;-67
2021/11/04 06:08:35;;;;;;;1.92;0.35;;;;;;;16.00;39.81;100456.34;4451374;32;20358;-67
2021/11/04 06:11:03;;;;;;;1.65;0.45;;;;;;;16.18;39.44;100464.72;4449758;32;20091;-67
2021/11/04 06:13:29;;;;;;;2.65;0.50;;;;;;;16.09;39.45;100459.12;4434821;32;20098;-67
2021/11/04 06:15:54;;;;;;;1.15;0.20;;;;;;;16.21;39.36;100460.94;4447760;32;20144;-67
2021/11/04 06:18:20;;;;;;;1.05;0.20;;;;;;;16.15;39.25;100465.69;4449896;32;20562;-67
2021/11/04 06:20:45;;;;;;;3.53;0.22;;;;;;;15.97;39.68;100457.28;4447530;32;20072;-67
2021/11/04 06:23:11;;;;;;;3.87;0.60;;;;;;;15.85;39.88;100472.50;4448060;32;20112;-67
2021/11/04 06:25:37;;;;;;;1.02;0.20;;;;;;;16.25;39.29;100483.44;4450475;32;20089;-67
2021/11/04 06:28:03;;;;;;;1.25;0.32;;;;;;;16.35;39.05;100479.28;4453332;32;20033;-67
2021/11/04 06:30:28;;;;;;;1.05;0.25;;;;;;;16.19;39.34;100485.38;4449048;32;20080;-67
2021/11/04 06:32:54;;;;;;;1.83;0.30;;;;;;;15.86;40.06;100480.53;4448011;32;20102;-67
2021/11/04 06:35:20;;;;;;;1.95;0.30;;;;;;;16.06;39.63;100482.00;4452051;32;20059;-67
2021/11/04 06:37:46;;;;;;;5.72;0.50;;;;;;;16.11;39.65;100493.50;4450033;32;20568;-67
2021/11/04 06:40:12;;;;;;;1.55;0.30;;;;;;;15.52;40.70;100488.72;4447306;32;20152;-67
2021/11/04 06:42:38;;;;;;;0.73;0.20;;;;;;;16.09;39.74;100492.38;4447632;32;20055;-67
2021/11/04 06:45:05;;;;;;;3.35;0.50;;;;;;;16.06;40.04;100499.03;4451989;32;20903;-67
2021/11/04 06:50:06;;;;;;;1.58;0.40;;;;;;;16.02;39.88;100490.69;3979103;32;15117872;-68
2021/11/04 06:52:37;;;;;;;1.90;0.30;;;;;;;16.02;39.88;100490.69;4434743;32;20034;-68
2021/11/04 06:55:05;;;;;;;1.45;0.30;;;;;;;15.68;40.32;100496.88;4432275;32;20110;-68
2021/11/04 06:57:36;;;;;;;4.82;0.57;;;;;;;16.02;39.90;100499.22;4434710;32;20403;-68
2021/11/04 07:00:07;;;;;;;2.50;0.55;;;;;;;16.32;39.38;100511.50;4433624;32;20145;-68
2021/11/04 07:02:35;;;;;;;2.08;0.50;;;;;;;16.22;39.54;100524.16;4434912;32;20058;-68
2021/11/04 07:05:03;;;;;;;1.25;0.50;;;;;;;16.33;39.26;100513.84;4432617;32;20129;-68
2021/11/04 07:07:33;;;;;;;1.98;0.30;;;;;;;16.34;39.09;100515.41;4431390;32;20030;-68
2021/11/04 07:10:00;;;;;;;2.47;0.77;;;;;;;16.15;39.43;100519.63;4432161;32;20087;-68
2021/11/04 07:12:26;;;;;;;3.72;0.50;;;;;;;16.45;38.98;100520.59;4434662;32;20418;-68
2021/11/04 07:14:52;;;;;;;2.03;0.50;;;;;;;16.15;39.06;100524.53;4437696;32;20042;-68
2021/11/04 07:17:18;;;;;;;2.35;0.43;;;;;;;16.21;39.08;100529.06;4435279;32;20029;-68
2021/11/04 07:19:46;;;;;;;1.85;0.60;;;;;;;16.35;39.09;100531.16;4435366;32;20107;-68
2021/11/04 07:30:29;;;;;;;1.75;0.50;;;;;;;17.04;37.75;100567.78;4005094;31;15018602;-69
2021/11/04 07:35:34;;;;;;;3.37;0.50;;;;;;;17.21;37.94;100561.12;3976052;32;15015214;-69
2021/11/04 07:38:01;;;;;;;2.50;0.30;;;;;;;17.21;37.94;100561.12;4418738;32;20115;-69
2021/11/04 07:40:28;;;;;;;4.80;0.40;;;;;;;16.72;38.30;100558.09;4421882;32;20037;-69
2021/11/04 07:42:54;;;;;;;3.78;0.62;;;;;;;16.90;38.27;100575.00;4421382;32;20078;-69
2021/11/04 07:45:21;;;;;;;5.18;0.40;;;;;;;16.96;38.13;100561.69;4420131;32;20688;-69
2021/11/04 07:47:48;;;;;;;4.43;0.47;;;;;;;16.55;38.62;100562.66;4422249;32;20687;-68
2021/11/04 07:50:18;;;;;;;2.67;0.40;;;;;;;16.67;38.42;100578.66;4418732;32;20417;-69
2021/11/04 07:52:45;;;;;;;3.65;0.60;;;;;;;17.02;38.03;100581.69;4420719;32;20046;-69
2021/11/04 07:55:12;;;;;;;3.80;0.70;;;;;;;16.76;38.56;100586.34;4409848;32;20146;-69
2021/11/04 07:57:39;;;;;;;8.13;0.75;;;;;;;16.56;39.16;100589.78;4410769;32;20090;-69
2021/11/04 08:02:42;;;;;;;7.00;0.60;;;;;;;17.12;38.01;100603.88;3946373;32;15724576;-69
2021/11/04 08:05:09;;;;;;;9.23;0.60;;;;;;;17.12;38.01;100603.88;4425220;32;20937;-69
2021/11/04 08:07:36;;;;;;;3.22;0.40;;;;;;;16.81;38.38;100597.03;4422132;32;20462;-69
2021/11/04 08:10:05;;;;;;;4.70;0.80;;;;;;;16.71;38.37;100590.63;4421765;32;20507;-69
2021/11/04 08:12:33;;;;;;;2.12;0.45;;;;;;;16.95;38.13;100605.59;4422223;32;20389;-69
2021/11/04 08:15:00;;;;;;;3.53;0.90;;;;;;;16.88;38.28;100613.72;4410277;32;20085;-69
2021/11/04 08:17:26;;;;;;;2.45;1.12;;;;;;;16.64;38.66;100621.47;4426674;32;20065;-69
2021/11/04 08:19:51;;;;;;;4.50;0.65;;;;;;;16.39;39.05;100616.22;4419524;32;20441;-70
2021/11/04 08:22:17;;;;;;;5.45;0.50;;;;;;;16.48;38.78;100617.00;4423171;32;20461;-69
2021/11/04 08:24:43;;;;;;;2.67;0.35;;;;;;;16.29;39.21;100620.37;4423120;32;20478;-69
2021/11/04 08:27:09;;;;;;;4.40;0.88;;;;;;;15.78;40.12;100620.41;4425780;32;20037;-69
2021/11/04 08:29:36;;;;;;;4.05;0.60;;;;;;;16.22;39.44;100632.06;4425187;32;20184;-69
2021/11/04 08:32:01;;;;;;;3.75;0.62;;;;;;;16.48;39.49;100633.22;4427038;32;20426;-69
2021/11/04 08:34:27;;;;;;;6.00;0.65;;;;;;;16.54;38.90;100637.00;4424965;32;20076;-69
2021/11/04 08:36:53;;;;;;;3.40;0.60;;;;;;;16.83;38.23;100642.78;4423423;32;20045;-69
2021/11/04 08:39:19;;;;;;;9.18;1.20;;;;;;;17.01;37.98;100640.63;4421282;32;20428;-69
2021/11/04 08:41:45;;;;;;;2.30;0.65;;;;;;;16.97;37.89;100644.91;4427921;32;20065;-69
2021/11/04 08:44:11;;;;;;;1.85;0.50;;;;;;;17.55;37.11;100656.47;4425323;32;20041;-69
2021/11/04 08:46:36;;;;;;;6.75;0.90;;;;;;;17.74;37.01;100652.94;4423781;32;20105;-69
2021/11/04 08:49:03;;;;;;;5.85;0.95;;;;;;;17.44;36.90;100648.50;4425611;32;20547;-69
2021/11/04 08:51:29;;;;;;;7.22;0.65;;;;;;;17.96;36.29;100654.63;4426330;32;20667;-70
2021/11/04 08:53:55;;;;;;;3.50;0.47;;;;;;;17.73;36.69;100659.12;4423098;32;20076;-70
2021/11/04 08:56:21;;;;;;;3.58;0.70;;;;;;;17.14;37.42;100643.19;4423240;32;20161;-70
2021/11/04 08:58:47;;;;;;;6.65;1.58;;;;;;;17.23;37.47;100654.50;4420542;32;20046;-70
2021/11/04 09:01:12;;;;;;;8.90;0.80;;;;;;;17.36;37.22;100649.31;4421384;32;20054;-70
2021/11/04 09:03:38;;;;;;;7.95;0.82;;;;;;;17.40;37.46;100655.62;4427058;32;20088;-69
2021/11/04 09:06:04;;;;;;;6.47;1.27;;;;;;;17.65;36.91;100661.56;4422569;32;20593;-69
2021/11/04 09:08:31;;;;;;;3.45;0.52;;;;;;;17.77;36.85;100665.44;4422943;32;20086;-69
2021/11/04 09:10:57;;;;;;;3.92;0.73;;;;;;;17.19;37.03;100671.78;4423788;32;20073;-70
2021/11/04 09:13:23;;;;;;;11.77;0.77;;;;;;;17.63;36.85;100677.56;4399047;32;21088;-69
2021/11/04 09:15:50;;;;;;;2.33;0.50;;;;;;;17.51;37.01;100685.13;4412995;32;20069;-68
2021/11/04 09:18:17;;;;;;;4.07;0.60;;;;;;;17.43;36.74;100686.00;4413574;32;20086;-68
2021/11/04 09:20:43;;;;;;;8.60;0.70;;;;;;;17.08;37.73;100685.75;4413323;32;20590;-69
2021/11/04 09:23:09;;;;;;;3.30;0.70;;;;;;;17.33;37.14;100688.06;4413517;32;21097;-68
2021/11/04 09:25:36;;;;;;;7.15;0.90;;;;;;;16.42;38.22;100687.06;4414307;32;20288;-68
2021/11/04 09:28:02;;;;;;;5.45;0.60;;;;;;;17.50;36.83;100694.94;4416288;32;20096;-69
2021/11/04 09:30:29;;;;;;;3.33;0.90;;;;;;;17.71;36.58;100702.31;4413942;32;20164;-69
2021/11/04 09:32:55;;;;;;;2.75;0.65;;;;;;;17.48;36.90;100683.25;4411077;32;20085;-68
2021/11/04 09:35:21;;;;;;;2.83;0.50;;;;;;;17.30;37.17;100686.22;4412402;32;20108;-68
2021/11/04 09:37:48;;;;;;;8.02;2.05;;;;;;;16.50;37.93;100701.72;4412137;32;20448;-68
2021/11/04 09:40:16;;;;;;;1.80;0.30;;;;;;;16.30;38.83;100707.13;4414028;32;20528;-68
2021/11/04 09:42:45;;;;;;;2.30;0.70;;;;;;;16.51;38.39;100698.37;4413868;32;20067;-69
2021/11/04 09:45:11;;;;;;;3.58;1.05;;;;;;;16.79;37.67;100711.22;4415936;32;20069;-70
2021/11/04 09:47:37;;;;;;;3.10;0.60;;;;;;;16.72;38.16;100714.38;4398868;32;20142;-69
2021/11/04 09:50:06;;;;;;;3.62;0.98;;;;;;;17.06;37.35;100716.72;4407660;32;20041;-69
2021/11/04 09:52:35;;;;;;;3.35;0.50;;;;;;;16.85;38.49;100723.50;4413743;32;20092;-69
2021/11/04 09:55:07;;;;;;;3.78;0.77;;;;;;;17.54;37.40;100726.81;4413913;32;20075;-69
2021/11/04 09:57:34;;;;;;;5.05;0.60;;;;;;;18.41;35.49;100722.50;4414551;32;20068;-70
2021/11/04 10:00:00;;;;;;;2.33;0.62;;;;;;;18.70;35.07;100733.84;4415478;32;20035;-69
2021/11/04 10:02:27;;;;;;;5.57;0.60;;;;;;;19.27;33.80;100734.97;4413532;32;20149;-69
2021/11/04 10:05:03;;;;;;;3.95;0.62;;;;;;;19.24;33.59;100739.56;4409603;32;20713;-69
2021/11/04 10:07:39;;;;;;;;;;;;;;;19.44;33.58;100739.63;4398520;32;20033;-69
2021/11/04 10:10:05;;;;;;;4.05;0.80;;;;;;;18.96;33.92;100746.19;4414574;32;19989;-70
2021/11/04 10:12:31;;;;;;;4.80;1.08;;;;;;;18.98;33.89;100746.44;4414066;32;20049;-69
2021/11/04 10:15:11;;;;;;;7.72;1.15;;;;;;;18.47;34.27;100752.66;4413046;32;20454;-69
2021/11/04 10:17:37;;;;;;;3.28;0.57;;;;;;;18.81;34.18;100728.31;4413052;32;20121;-69
2021/11/04 10:20:27;;;;;;;7.22;0.70;;;;;;;18.59;34.41;100745.09;4394036;32;20042;-69
2021/11/04 10:23:03;;;;;;;2.58;0.60;;;;;;;19.43;33.39;100755.16;4411507;32;20077;-69
2021/11/04 10:25:29;;;;;;;7.65;0.73;;;;;;;18.82;34.01;100753.50;4409824;32;20112;-69
2021/11/04 10:27:56;;;;;;;2.83;0.70;;;;;;;19.63;32.95;100748.66;4409769;32;20069;-69
2021/11/04 10:30:42;;;;;;;4.18;0.77;;;;;;;20.08;32.07;100762.16;4412756;32;20297;-69
2021/11/04 10:38:50;;;;;;;3.03;0.40;;;;;;;19.30;33.04;100776.78;3974894;32;15021698;-68
2021/11/04 10:44:03;;;;;;;1.73;0.40;;;;;;;19.55;33.23;100778.94;3975230;32;15021434;-68
2021/11/04 10:46:30;;;;;;;10.63;1.23;;;;;;;19.55;33.23;100778.94;4425317;32;20119;-68
2021/11/04 10:48:59;;;;;;;7.25;0.60;;;;;;;19.23;33.36;100775.09;4421886;32;20435;-69
2021/11/04 10:51:26;;;;;;;5.10;0.80;;;;;;;19.65;32.66;100775.44;4430577;32;20033;-69
2021/11/04 10:53:59;;;;;;;1.55;0.50;;;;;;;19.61;32.65;100782.66;4426508;32;20069;-68
2021/11/04 10:56:31;;;;;;;3.40;0.52;;;;;;;19.53;32.90;100785.16;4424670;32;20077;-68
2021/11/04 11:01:36;;;;;;;2.35;0.45;;;;;;;20.07;32.20;100792.03;3970302;32;15022010;-68
2021/11/04 11:04:07;;;;;;;3.50;0.73;;;;;;;20.07;32.20;100792.03;4436121;32;20084;-70
2021/11/04 11:06:43;;;;;;;3.40;0.52;;;;;;;19.93;32.29;100798.59;4434132;32;20113;-68
2021/11/04 11:09:13;;;;;;;4.20;0.55;;;;;;;19.78;31.96;100797.91;4434235;32;20083;-68
2021/11/04 11:11:41;;;;;;;7.47;0.60;;;;;;;20.09;32.00;100795.16;4435761;32;20126;-69
2021/11/04 11:14:08;;;;;;;4.37;0.62;;;;;;;20.32;31.86;100797.00;4436963;32;20806;-69
2021/11/04 11:16:36;;;;;;;2.33;0.35;;;;;;;19.87;31.90;100799.81;4438982;32;20108;-69
2021/11/04 11:19:02;;;;;;;3.33;0.75;;;;;;;18.88;33.48;100793.50;4435214;32;20073;-69
2021/11/04 11:21:34;;;;;;;7.00;0.60;;;;;;;19.10;33.22;100794.62;4423796;32;20069;-68
2021/11/04 11:24:02;;;;;;;11.23;1.40;;;;;;;19.75;32.27;100798.91;4435741;32;20053;-69
2021/11/04 11:26:28;;;;;;;4.12;0.70;;;;;;;20.29;31.87;100800.88;4435713;32;20077;-68
2021/11/04 11:28:55;;;;;;;11.57;1.60;;;;;;;19.72;32.21;100799.91;4418723;32;20506;-69
2021/11/04 11:31:25;;;;;;;0.77;0.20;;;;;;;20.12;31.73;100811.31;4435613;32;20400;-69
2021/11/04 11:37:18;;;;;;;0.85;0.22;;;;;;;19.89;31.93;100812.34;3981911;31;15015628;-69
2021/11/04 11:39:53;;;;;;;5.25;0.80;;;;;;;19.69;32.03;100812.31;4433334;32;20091;-69
2021/11/04 11:42:23;;;;;;;1.95;0.60;;;;;;;19.70;32.00;100813.91;4430700;32;20215;-69
2021/11/04 11:44:59;;;;;;;2.40;0.60;;;;;;;19.57;32.17;100805.69;4432327;32;20104;-69
2021/11/04 11:53:34;;;;;;;6.15;1.20;;;;;;;22.15;29.29;100811.22;3982025;31;15016207;-69
2021/11/04 11:56:01;;;;;;;6.50;0.80;;;;;;;22.15;29.29;100811.22;4445561;32;20036;-69
2021/11/04 11:58:32;;;;;;;3.65;0.62;;;;;;;21.78;29.28;100798.34;4440577;32;20044;-69
2021/11/04 12:03:46;;;;;;;4.12;0.93;;;;;;;23.64;26.72;100811.25;3969087;32;15021946;-70
2021/11/04 12:11:47;;;;;;;4.87;0.80;;;;;;;23.96;25.73;100821.06;3974670;32;15023297;-69
2021/11/04 12:14:31;;;;;;;6.37;0.47;;;;;;;23.96;25.73;100821.06;4426251;32;20092;-69
2021/11/04 12:19:55;;;;;;;3.80;0.75;;;;;;;23.78;25.94;100818.00;3978657;31;15015394;-69
2021/11/04 12:22:28;;;;;;;2.35;0.47;;;;;;;23.78;25.94;100818.00;4425673;32;20563;-69